Time;durP1;ratioP1;P1;durP2;ratioP2;P2;SDS_P1;SDS_P2;PMS_P1;PMS_P2;Temp;Humidity;BMP_temperature;BMP_pressure;BME280_temperature;BME280_humidity;BME280_pressure;Samples;Min_cycle;Max_cycle;Signal;HPM_P1;HPM_P2
2021/03/25 00:00:57;;;;;;;74.22;51.90;;;4.50;1.00;;;;;;4961436;28;20292;-79
2021/03/25 00:03:24;;;;;;;75.55;54.15;;;4.50;1.00;;;;;;4967878;28;20224;-78
2021/03/25 00:05:52;;;;;;;76.50;54.00;;;4.50;1.00;;;;;;4970980;28;20220;-78
2021/03/25 00:08:21;;;;;;;84.35;54.40;;;4.40;1.00;;;;;;4967904;28;20224;-79
2021/03/25 00:10:48;;;;;;;80.45;54.72;;;4.40;1.00;;;;;;4976891;28;20236;-80
2021/03/25 00:13:16;;;;;;;72.07;52.97;;;4.40;1.00;;;;;;4973195;28;20304;-78
2021/03/25 00:15:43;;;;;;;70.50;52.55;;;4.40;1.00;;;;;;4960814;28;20232;-78
2021/03/25 00:18:14;;;;;;;71.10;53.17;;;4.40;1.00;;;;;;4952995;28;20276;-78
2021/03/25 00:20:40;;;;;;;70.38;50.55;;;4.40;1.00;;;;;;4971749;28;20224;-79
2021/03/25 00:23:08;;;;;;;70.28;52.67;;;4.30;1.00;;;;;;4973308;28;20224;-79
2021/03/25 00:25:37;;;;;;;74.40;51.90;;;4.40;1.00;;;;;;4958532;28;20232;-78
2021/03/25 00:28:04;;;;;;;75.22;51.97;;;4.40;1.00;;;;;;4946115;28;20388;-78
2021/03/25 00:30:33;;;;;;;78.93;54.47;;;4.40;1.00;;;;;;4949083;28;20258;-79
2021/03/25 00:33:02;;;;;;;78.43;56.17;;;4.40;1.00;;;;;;4969193;28;20225;-79
2021/03/25 00:35:30;;;;;;;82.40;54.58;;;4.40;1.00;;;;;;4978173;28;20243;-78
2021/03/25 00:37:57;;;;;;;72.13;53.08;;;4.40;1.00;;;;;;4983229;28;20209;-80
2021/03/25 00:40:23;;;;;;;71.85;53.20;;;4.30;1.00;;;;;;4979985;28;20232;-78
2021/03/25 00:42:50;;;;;;;73.47;51.65;;;4.40;1.00;;;;;;4980742;28;20225;-77
2021/03/25 00:45:24;;;;;;;74.47;49.90;;;4.40;1.00;;;;;;4957968;28;20316;-79
2021/03/25 00:47:51;;;;;;;70.45;50.72;;;4.40;1.00;;;;;;4973836;28;20325;-78
2021/03/25 00:50:24;;;;;;;72.30;52.42;;;4.30;1.00;;;;;;4975603;28;20367;-78
2021/03/25 00:52:50;;;;;;;77.25;52.92;;;4.30;1.00;;;;;;4967109;28;20241;-77
2021/03/25 00:55:17;;;;;;;71.40;52.58;;;4.30;1.00;;;;;;4968038;28;20224;-78
2021/03/25 00:57:44;;;;;;;73.40;52.85;;;4.20;1.00;;;;;;4990132;28;20255;-79
2021/03/25 01:00:13;;;;;;;79.03;51.63;;;4.20;1.00;;;;;;4989787;28;20232;-78
2021/03/25 01:02:39;;;;;;;71.70;50.88;;;4.20;1.00;;;;;;4991530;28;20255;-78
2021/03/25 01:05:08;;;;;;;73.90;51.28;;;4.20;1.00;;;;;;4991609;28;20236;-77
2021/03/25 01:07:34;;;;;;;75.05;51.72;;;4.20;1.00;;;;;;4989002;28;20244;-79
2021/03/25 01:10:01;;;;;;;80.93;53.90;;;4.10;1.00;;;;;;4993324;28;20224;-79
2021/03/25 01:12:27;;;;;;;74.63;51.55;;;4.10;1.00;;;;;;4975973;28;20228;-78
2021/03/25 01:14:53;;;;;;;73.65;51.97;;;4.00;1.00;;;;;;4973475;28;20251;-80
2021/03/25 01:17:22;;;;;;;78.35;53.35;;;4.10;1.00;;;;;;4988354;28;20240;-79
2021/03/25 01:19:48;;;;;;;84.63;55.67;;;4.00;1.00;;;;;;4988246;28;21421;-79
2021/03/25 01:22:16;;;;;;;68.18;50.50;;;4.00;1.00;;;;;;4993282;28;20220;-78
2021/03/25 01:24:42;;;;;;;68.65;51.70;;;4.00;1.00;;;;;;4981420;28;20259;-79
2021/03/25 01:27:08;;;;;;;77.65;52.58;;;4.00;1.00;;;;;;4977753;28;20228;-77
2021/03/25 01:29:35;;;;;;;74.97;50.08;;;4.00;1.00;;;;;;4960758;28;20240;-78
2021/03/25 01:32:01;;;;;;;79.10;53.95;;;4.00;1.00;;;;;;4980531;28;20498;-78
2021/03/25 01:34:27;;;;;;;77.45;52.65;;;4.00;1.00;;;;;;4968381;28;20239;-78
2021/03/25 01:36:53;;;;;;;78.88;53.65;;;4.00;1.00;;;;;;4965284;28;20316;-79
2021/03/25 01:39:21;;;;;;;76.63;50.35;;;4.00;1.00;;;;;;4964199;28;20225;-79
2021/03/25 01:41:47;;;;;;;67.53;49.75;;;4.00;1.00;;;;;;4963910;28;20277;-78
2021/03/25 01:44:34;;;;;;;70.88;50.88;;;4.00;1.00;;;;;;4968185;28;21170;-80
2021/03/25 01:47:01;;;;;;;71.15;49.85;;;4.00;1.00;;;;;;4964388;28;20216;-78
2021/03/25 01:49:27;;;;;;;72.40;49.65;;;4.00;1.00;;;;;;4958402;28;20232;-79
2021/03/25 01:52:11;;;;;;;75.22;51.78;;;4.00;1.00;;;;;;4956426;28;20228;-78
2021/03/25 01:55:03;;;;;;;77.53;50.78;;;4.00;1.00;;;;;;4955475;28;20255;-77
2021/03/25 01:57:55;;;;;;;70.43;48.78;;;3.90;1.00;;;;;;4963485;28;20267;-80
2021/03/25 02:00:32;;;;;;;72.03;48.45;;;3.90;1.00;;;;;;4960339;28;20236;-78
2021/03/25 02:03:15;;;;;;;71.50;48.95;;;3.80;1.00;;;;;;4949944;28;20243;-78
2021/03/25 02:05:50;;;;;;;80.20;50.42;;;3.80;1.00;;;;;;4943340;28;24591;-79
2021/03/25 02:08:27;;;;;;;67.22;49.08;;;3.80;1.00;;;;;;4952828;28;20717;-79
2021/03/25 02:11:05;;;;;;;69.80;47.72;;;3.80;1.00;;;;;;4946981;28;20224;-79
2021/03/25 02:13:38;;;;;;;71.55;47.97;;;3.90;1.00;;;;;;4947112;28;20314;-79
2021/03/25 02:16:08;;;;;;;75.50;48.88;;;3.90;1.00;;;;;;4946229;28;20299;-78
2021/03/25 02:18:43;;;;;;;76.93;50.67;;;3.90;1.00;;;;;;4955510;28;20229;-78
2021/03/25 02:21:36;;;;;;;68.30;47.92;;;3.80;1.00;;;;;;4957120;28;20326;-78
2021/03/25 02:24:27;;;;;;;70.75;48.63;;;3.70;1.00;;;;;;4948024;28;20328;-80
2021/03/25 02:27:02;;;;;;;72.20;49.13;;;3.70;1.00;;;;;;4939351;28;20326;-79
2021/03/25 02:29:51;;;;;;;73.60;49.83;;;3.70;1.00;;;;;;4945767;28;20245;-78
2021/03/25 02:32:23;;;;;;;70.50;49.05;;;3.70;1.00;;;;;;4970105;28;20255;-78
2021/03/25 02:34:52;;;;;;;74.95;50.15;;;3.60;1.00;;;;;;4969412;28;20642;-79
2021/03/25 02:37:22;;;;;;;66.70;47.38;;;3.60;1.00;;;;;;4979886;28;20263;-79
2021/03/25 02:39:55;;;;;;;69.78;47.78;;;3.50;1.00;;;;;;4962292;28;20804;-79
2021/03/25 02:42:24;;;;;;;75.85;49.30;;;3.50;1.00;;;;;;4964869;28;20237;-79
2021/03/25 02:44:58;;;;;;;71.70;47.17;;;3.50;1.00;;;;;;4951367;28;20229;-80
2021/03/25 02:47:27;;;;;;;70.65;51.45;;;3.50;1.00;;;;;;4954583;28;20986;-79
2021/03/25 02:49:58;;;;;;;69.72;50.22;;;3.40;1.00;;;;;;4931496;28;20251;-79
2021/03/25 02:52:30;;;;;;;71.60;49.85;;;3.40;1.00;;;;;;4956597;28;20771;-78
2021/03/25 02:54:58;;;;;;;68.35;47.03;;;3.40;1.00;;;;;;4960650;28;20292;-77
2021/03/25 02:57:30;;;;;;;71.20;47.35;;;3.40;1.00;;;;;;4959485;28;20263;-78
2021/03/25 03:00:00;;;;;;;74.30;48.08;;;3.30;1.00;;;;;;4960479;28;20224;-79
2021/03/25 03:02:32;;;;;;;70.03;46.85;;;3.30;1.00;;;;;;4951219;28;23275;-78
2021/03/25 03:05:02;;;;;;;72.55;48.40;;;3.30;1.00;;;;;;4962433;28;20255;-79
2021/03/25 03:07:35;;;;;;;76.68;50.47;;;3.30;1.00;;;;;;4959694;28;20467;-77
2021/03/25 03:10:09;;;;;;;69.97;49.17;;;3.30;1.00;;;;;;4969838;28;20220;-76
2021/03/25 03:12:39;;;;;;;84.95;50.40;;;3.30;1.00;;;;;;4973543;28;20224;-78
2021/03/25 03:15:13;;;;;;;73.28;49.38;;;3.30;1.00;;;;;;4962335;28;20243;-77
2021/03/25 03:17:44;;;;;;;76.13;49.70;;;3.30;1.00;;;;;;4955604;28;20245;-79
2021/03/25 03:20:16;;;;;;;76.18;48.85;;;3.20;1.00;;;;;;4954945;28;20224;-79
2021/03/25 03:22:42;;;;;;;72.65;48.33;;;3.20;1.00;;;;;;4956566;28;20232;-78
2021/03/25 03:25:11;;;;;;;78.05;49.60;;;3.20;1.00;;;;;;4955883;28;20228;-78
2021/03/25 03:27:41;;;;;;;71.80;49.05;;;3.10;1.00;;;;;;4952654;28;20335;-78
2021/03/25 03:30:14;;;;;;;72.35;47.90;;;3.10;1.00;;;;;;4953583;28;20238;-77
2021/03/25 03:32:48;;;;;;;77.05;49.17;;;3.10;1.00;;;;;;4954674;28;20223;-79
2021/03/25 03:35:18;;;;;;;76.55;48.00;;;3.10;1.00;;;;;;4959514;28;20240;-79
2021/03/25 03:37:49;;;;;;;75.70;48.58;;;3.00;1.00;;;;;;4931605;28;20235;-78
2021/03/25 03:40:19;;;;;;;71.97;47.50;;;3.00;1.00;;;;;;4957006;28;20276;-78
2021/03/25 03:42:47;;;;;;;74.47;50.10;;;3.00;1.00;;;;;;4957893;28;20276;-78
2021/03/25 03:45:18;;;;;;;86.35;52.00;;;3.00;1.00;;;;;;4954523;28;20224;-78
2021/03/25 03:47:47;;;;;;;66.40;49.67;;;2.90;1.00;;;;;;4957247;28;20319;-76
2021/03/25 03:50:18;;;;;;;68.95;47.60;;;2.90;1.00;;;;;;4955921;28;20221;-76
2021/03/25 03:52:50;;;;;;;76.00;50.58;;;2.90;1.00;;;;;;4965218;28;21597;-76
2021/03/25 03:55:18;;;;;;;75.45;49.95;;;2.90;1.00;;;;;;4954240;28;20239;-76
2021/03/25 03:57:50;;;;;;;72.80;48.78;;;2.90;1.00;;;;;;4954550;28;21300;-78
2021/03/25 04:00:26;;;;;;;76.63;49.20;;;2.80;1.00;;;;;;4958289;28;20486;-79
2021/03/25 04:03:05;;;;;;;82.05;47.83;;;2.80;1.00;;;;;;4958366;28;20234;-78
2021/03/25 04:05:34;;;;;;;74.38;51.08;;;2.80;1.00;;;;;;4954700;28;20231;-79
2021/03/25 04:08:06;;;;;;;74.95;48.42;;;2.80;1.00;;;;;;4951567;28;20293;-79
2021/03/25 04:10:38;;;;;;;72.70;47.78;;;2.90;1.00;;;;;;4965638;28;20267;-79
2021/03/25 04:13:09;;;;;;;76.65;50.20;;;2.90;1.00;;;;;;4966062;28;20323;-78
2021/03/25 04:15:38;;;;;;;70.70;48.03;;;2.80;1.00;;;;;;4946738;28;20250;-78
2021/03/25 04:18:11;;;;;;;73.90;48.30;;;2.80;1.00;;;;;;4981066;28;20216;-78
2021/03/25 04:20:42;;;;;;;70.90;48.45;;;2.80;1.00;;;;;;4969335;28;20228;-79
2021/03/25 04:23:11;;;;;;;82.35;49.58;;;2.80;1.00;;;;;;4966836;28;20224;-78
2021/03/25 04:25:41;;;;;;;76.57;47.85;;;2.80;1.00;;;;;;4981379;28;20238;-78
2021/03/25 04:28:12;;;;;;;73.10;47.13;;;2.70;1.00;;;;;;4976056;28;20240;-79
2021/03/25 04:30:43;;;;;;;78.40;52.25;;;2.60;1.00;;;;;;4966334;28;21028;-79
2021/03/25 04:33:12;;;;;;;89.40;54.60;;;2.70;1.00;;;;;;4972192;28;20312;-79
2021/03/25 04:35:41;;;;;;;77.88;49.67;;;2.70;1.00;;;;;;4967468;28;20238;-78
2021/03/25 04:38:10;;;;;;;77.50;51.45;;;2.70;1.00;;;;;;4964921;28;20723;-78
2021/03/25 04:40:37;;;;;;;77.28;47.17;;;2.70;1.00;;;;;;4969177;28;20228;-77
2021/03/25 04:43:04;;;;;;;71.47;46.83;;;2.80;1.00;;;;;;4977630;28;20268;-79
2021/03/25 04:45:43;;;;;;;80.70;50.03;;;2.70;1.00;;;;;;4973983;28;21287;-78
2021/03/25 04:48:15;;;;;;;70.85;47.88;;;2.80;1.00;;;;;;4973621;28;20232;-80
2021/03/25 04:50:47;;;;;;;86.78;52.30;;;2.80;1.00;;;;;;4968579;28;20271;-80
2021/03/25 04:53:23;;;;;;;71.82;47.60;;;2.80;1.00;;;;;;4969052;28;20220;-79
2021/03/25 04:55:50;;;;;;;78.35;46.78;;;2.80;1.00;;;;;;4969352;28;20254;-79
2021/03/25 04:58:24;;;;;;;77.30;50.35;;;2.80;1.00;;;;;;4965357;28;20226;-79
2021/03/25 05:00:51;;;;;;;77.88;49.75;;;2.70;1.00;;;;;;4968194;28;20302;-79
2021/03/25 05:03:24;;;;;;;84.50;49.55;;;2.70;1.00;;;;;;4964661;28;20366;-79
2021/03/25 05:05:53;;;;;;;77.28;48.20;;;2.70;1.00;;;;;;4951435;28;20360;-78
2021/03/25 05:08:21;;;;;;;80.85;50.85;;;2.80;1.00;;;;;;4965502;28;20239;-80
2021/03/25 05:10:55;;;;;;;69.68;46.72;;;2.80;1.00;;;;;;4968469;28;20226;-80
2021/03/25 05:13:24;;;;;;;76.07;49.47;;;2.80;1.00;;;;;;4948110;28;20311;-78
2021/03/25 05:16:16;;;;;;;77.53;50.45;;;2.90;1.00;;;;;;4988309;28;20243;-78
2021/03/25 05:18:57;;;;;;;72.82;48.50;;;2.90;1.00;;;;;;4971888;28;20232;-79
2021/03/25 05:21:30;;;;;;;82.95;50.47;;;2.90;1.00;;;;;;4972480;28;20235;-80
2021/03/25 05:24:04;;;;;;;76.32;48.80;;;3.00;1.00;;;;;;4971077;28;20220;-78
2021/03/25 05:26:38;;;;;;;83.53;48.83;;;3.00;1.00;;;;;;4979919;28;21221;-78
2021/03/25 05:29:06;;;;;;;73.40;49.63;;;3.00;1.00;;;;;;4963960;28;20223;-78
2021/03/25 05:31:36;;;;;;;75.60;50.10;;;3.00;1.00;;;;;;4966225;28;20271;-79
2021/03/25 05:34:07;;;;;;;77.15;50.83;;;3.00;1.00;;;;;;4965428;28;20233;-78
2021/03/25 05:36:33;;;;;;;75.03;49.65;;;3.00;1.00;;;;;;4966989;28;20315;-78
2021/03/25 05:39:00;;;;;;;78.93;49.47;;;3.00;1.00;;;;;;4948679;28;20301;-79
2021/03/25 05:41:35;;;;;;;73.45;49.63;;;3.00;1.00;;;;;;4968118;28;20251;-79
2021/03/25 05:44:29;;;;;;;79.55;49.20;;;3.00;1.00;;;;;;4967342;28;20318;-79
2021/03/25 05:47:03;;;;;;;73.05;47.58;;;3.00;1.00;;;;;;4967082;28;20316;-79
2021/03/25 05:49:37;;;;;;;76.45;48.92;;;3.10;1.00;;;;;;4950905;28;20231;-79
2021/03/25 05:52:22;;;;;;;79.65;49.42;;;3.10;1.00;;;;;;4965859;28;20249;-80
2021/03/25 05:55:04;;;;;;;79.70;50.42;;;3.10;1.00;;;;;;4966047;28;20256;-79
2021/03/25 05:57:41;;;;;;;73.32;47.35;;;3.10;1.00;;;;;;4978173;28;20220;-79
2021/03/25 06:00:18;;;;;;;76.53;48.65;;;3.20;1.00;;;;;;4977869;28;20292;-79
2021/03/25 06:02:49;;;;;;;73.85;48.63;;;3.30;1.00;;;;;;4969632;28;20337;-79
2021/03/25 06:05:17;;;;;;;83.03;49.72;;;3.30;1.00;;;;;;4968528;28;20696;-78
2021/03/25 06:08:02;;;;;;;73.63;48.20;;;3.40;1.00;;;;;;4968227;28;20242;-79
2021/03/25 06:10:41;;;;;;;74.00;46.83;;;3.50;1.00;;;;;;4971289;28;20231;-79
2021/03/25 06:13:19;;;;;;;82.00;45.40;;;3.50;1.00;;;;;;4974101;28;20224;-80
2021/03/25 06:16:19;;;;;;;74.50;47.05;;;3.60;1.00;;;;;;4984753;28;20336;-79
2021/03/25 06:19:13;;;;;;;71.30;45.47;;;3.70;1.00;;;;;;4977833;28;20224;-79
2021/03/25 06:21:57;;;;;;;81.50;49.28;;;3.70;1.00;;;;;;4984083;28;20242;-79
2021/03/25 06:25:02;;;;;;;86.53;47.92;;;3.80;1.00;;;;;;4981738;28;20224;-79
2021/03/25 06:27:41;;;;;;;77.82;46.65;;;3.90;1.00;;;;;;4978898;28;20212;-78
2021/03/25 06:30:11;;;;;;;81.80;46.92;;;4.00;1.00;;;;;;4969803;28;20283;-79
2021/03/25 06:32:47;;;;;;;71.70;45.63;;;4.10;1.00;;;;;;4971632;28;20296;-79
2021/03/25 06:35:18;;;;;;;77.95;46.30;;;4.30;1.00;;;;;;4981074;28;20255;-78
2021/03/25 06:37:52;;;;;;;77.50;46.47;;;4.40;1.00;;;;;;4978710;28;20232;-80
2021/03/25 06:40:23;;;;;;;67.78;45.13;;;4.40;1.00;;;;;;4977984;28;20807;-79
2021/03/25 06:42:56;;;;;;;83.75;49.25;;;4.50;1.00;;;;;;4968663;28;20571;-81
2021/03/25 06:45:27;;;;;;;80.82;50.50;;;4.60;1.00;;;;;;4982269;28;20220;-77
2021/03/25 06:47:59;;;;;;;77.53;45.75;;;4.70;1.00;;;;;;4983128;28;20323;-78
2021/03/25 06:50:34;;;;;;;77.65;46.30;;;4.90;1.00;;;;;;4987679;28;20282;-78
2021/03/25 06:53:22;;;;;;;69.65;45.17;;;5.00;1.00;;;;;;4981877;28;20279;-80
2021/03/25 06:55:49;;;;;;;70.85;45.67;;;5.20;1.00;;;;;;4983588;28;20243;-79
2021/03/25 06:58:20;;;;;;;81.60;46.88;;;5.40;1.00;;;;;;4981805;28;20228;-79
2021/03/25 07:00:54;;;;;;;80.88;46.70;;;5.50;1.00;;;;;;4978156;28;20283;-79
2021/03/25 07:03:21;;;;;;;70.45;46.10;;;5.60;1.00;;;;;;4983203;28;20235;-80
2021/03/25 07:05:48;;;;;;;75.55;46.60;;;5.80;1.00;;;;;;4979543;28;20231;-79
2021/03/25 07:08:21;;;;;;;72.35;48.78;;;6.00;1.00;;;;;;4978958;28;20303;-80
2021/03/25 07:10:50;;;;;;;74.90;46.40;;;6.20;1.00;;;;;;4965351;28;20225;-80
2021/03/25 07:13:29;;;;;;;71.85;45.58;;;6.30;1.00;;;;;;4980826;28;20220;-79
2021/03/25 07:15:56;;;;;;;75.20;45.65;;;6.40;1.00;;;;;;4977264;28;20236;-79
2021/03/25 07:18:29;;;;;;;67.45;44.63;;;6.60;1.00;;;;;;4973732;28;20262;-79
2021/03/25 07:21:22;;;;;;;69.13;44.88;;;6.70;1.00;;;;;;4969805;28;21539;-79
2021/03/25 07:23:50;;;;;;;72.85;47.25;;;6.80;1.00;;;;;;4966763;28;20224;-79
2021/03/25 07:26:24;;;;;;;75.68;47.13;;;7.00;1.00;;;;;;4958853;28;20236;-75
2021/03/25 07:29:03;;;;;;;68.28;46.90;;;7.10;1.00;;;;;;4952017;28;20303;-77
2021/03/25 07:31:33;;;;;;;77.05;48.13;;;7.30;1.00;;;;;;4960088;28;20234;-75
2021/03/25 07:34:00;;;;;;;67.68;45.03;;;7.50;1.00;;;;;;4958915;28;20247;-75
2021/03/25 07:36:27;;;;;;;69.88;49.28;;;7.70;1.00;;;;;;4964890;28;20271;-76
2021/03/25 07:39:02;;;;;;;69.35;46.10;;;7.90;1.00;;;;;;4977042;28;21006;-76
2021/03/25 07:41:31;;;;;;;72.85;47.05;;;8.10;1.00;;;;;;4957736;28;20234;-73
2021/03/25 07:44:01;;;;;;;74.63;48.53;;;8.30;1.00;;;;;;4956496;28;20223;-75
2021/03/25 07:46:33;;;;;;;64.50;43.20;;;8.50;1.00;;;;;;4954168;28;20217;-75
2021/03/25 07:49:14;;;;;;;72.72;44.88;;;8.60;1.00;;;;;;4957031;28;20271;-76
2021/03/25 07:51:50;;;;;;;77.60;47.65;;;8.80;1.00;;;;;;4951961;28;20228;-74
2021/03/25 07:54:29;;;;;;;74.65;45.80;;;9.00;1.00;;;;;;4954857;28;20279;-75
2021/03/25 07:56:58;;;;;;;65.82;45.47;;;9.20;1.00;;;;;;4958277;28;20251;-76
2021/03/25 07:59:35;;;;;;;73.28;46.47;;;9.40;1.00;;;;;;4953621;28;20272;-75
2021/03/25 08:02:02;;;;;;;68.20;43.50;;;9.50;1.00;;;;;;4957263;28;20220;-74
2021/03/25 08:04:31;;;;;;;72.20;47.50;;;9.60;1.00;;;;;;4954205;28;20257;-75
2021/03/25 08:07:05;;;;;;;61.28;44.60;;;9.80;1.00;;;;;;4959502;28;20845;-75
2021/03/25 08:09:45;;;;;;;72.10;43.95;;;9.90;1.00;;;;;;4956383;28;20568;-75
2021/03/25 08:12:30;;;;;;;64.20;46.15;;;10.10;1.00;;;;;;4956347;28;24141;-76
2021/03/25 08:15:29;;;;;;;71.25;46.60;;;10.40;1.00;;;;;;4961709;28;20239;-76
2021/03/25 08:18:08;;;;;;;66.57;46.70;;;10.70;1.00;;;;;;4969625;28;20222;-76
2021/03/25 08:20:46;;;;;;;68.72;46.88;;;10.90;1.00;;;;;;4959805;28;20767;-74
2021/03/25 08:23:23;;;;;;;69.00;45.70;;;11.10;1.00;;;;;;4959448;28;20230;-75
2021/03/25 08:25:54;;;;;;;70.70;42.63;;;11.30;1.00;;;;;;4959388;28;20231;-74
2021/03/25 08:28:43;;;;;;;61.43;44.67;;;11.40;1.00;;;;;;4962803;28;20535;-74
2021/03/25 08:31:20;;;;;;;62.03;41.55;;;11.50;1.00;;;;;;4965672;28;21330;-74
2021/03/25 08:34:25;;;;;;;70.03;43.97;;;11.70;1.00;;;;;;4959642;28;20352;-75
2021/03/25 08:37:13;;;;;;;67.23;45.33;;;11.90;1.00;;;;;;4958220;28;20559;-75
2021/03/25 08:39:47;;;;;;;73.17;45.53;;;12.10;1.00;;;;;;4955050;28;20469;-76
2021/03/25 08:42:22;;;;;;;71.30;46.00;;;12.30;1.00;;;;;;4956723;28;20448;-76
2021/03/25 08:44:55;;;;;;;62.60;43.50;;;12.50;1.00;;;;;;4955326;28;21245;-75
2021/03/25 08:47:27;;;;;;;60.63;43.37;;;12.70;1.00;;;;;;4955987;28;21312;-74
2021/03/25 08:50:01;;;;;;;59.90;42.00;;;12.90;1.00;;;;;;4952610;28;20594;-74
2021/03/25 08:52:30;;;;;;;57.10;41.30;;;13.00;1.00;;;;;;4950351;28;21047;-75
2021/03/25 08:55:09;;;;;;;61.50;42.37;;;13.30;1.00;;;;;;4954174;28;20939;-74
2021/03/25 08:57:38;;;;;;;63.73;42.40;;;13.40;1.00;;;;;;4949291;28;20459;-75
2021/03/25 09:00:10;;;;;;;58.43;41.17;;;13.60;1.00;;;;;;4955631;28;20486;-76
2021/03/25 09:02:40;;;;;;;56.50;41.87;;;13.70;1.00;;;;;;4956688;28;20455;-75
2021/03/25 09:05:16;;;;;;;61.50;43.33;;;13.80;1.00;;;;;;4958620;28;20499;-74
2021/03/25 09:07:44;;;;;;;59.83;41.60;;;14.10;1.00;;;;;;4955689;28;20546;-76
2021/03/25 09:10:21;;;;;;;55.50;43.10;;;14.20;1.00;;;;;;4954818;28;20817;-74
2021/03/25 09:12:49;;;;;;;65.83;43.83;;;14.20;1.00;;;;;;4957937;28;20467;-74
2021/03/25 09:15:16;;;;;;;64.50;47.20;;;14.30;1.00;;;;;;4955941;28;20547;-76
2021/03/25 09:17:56;;;;;;;61.77;43.60;;;14.40;1.00;;;;;;4956995;28;20464;-76
2021/03/25 09:20:27;;;;;;;60.30;44.37;;;14.70;1.00;;;;;;4963729;28;20535;-73
2021/03/25 09:22:57;;;;;;;57.43;43.30;;;15.00;1.00;;;;;;4955775;28;20519;-75
2021/03/25 09:25:36;;;;;;;61.80;44.47;;;15.50;1.00;;;;;;4956587;28;21558;-76
2021/03/25 09:28:05;;;;;;;60.90;46.10;;;16.60;1.00;;;;;;4953094;28;20569;-77
2021/03/25 09:30:38;;;;;;;56.70;42.83;;;17.50;1.00;;;;;;4957558;28;20531;-75
2021/03/25 09:33:41;;;;;;;58.50;43.50;;;18.60;1.00;;;;;;4962286;28;20478;-79
2021/03/25 09:36:50;;;;;;;64.80;46.80;;;19.50;1.00;;;;;;4961096;28;20534;-78
2021/03/25 09:39:27;;;;;;;57.57;43.80;;;20.40;1.00;;;;;;4959171;28;20824;-78
2021/03/25 09:41:55;;;;;;;53.00;43.93;;;21.20;1.00;;;;;;4961794;28;20468;-78
2021/03/25 09:44:32;;;;;;;53.97;42.20;;;21.80;1.00;;;;;;4957235;28;21039;-78
2021/03/25 09:47:19;;;;;;;58.13;45.97;;;22.20;1.00;;;;;;4963423;28;20451;-78
2021/03/25 09:49:48;;;;;;;54.07;44.00;;;22.60;1.00;;;;;;4962252;28;20439;-77
2021/03/25 09:52:37;;;;;;;63.03;45.60;;;22.50;1.00;;;;;;4963047;28;20440;-78
2021/03/25 09:55:20;;;;;;;53.77;44.30;;;22.50;1.00;;;;;;4966064;28;20486;-78
2021/03/25 09:57:47;;;;;;;52.90;41.97;;;22.90;1.00;;;;;;4967445;28;20508;-78
2021/03/25 10:01:04;;;;;;;56.03;43.83;;;22.60;1.00;;;;;;4965095;28;20522;-79
2021/03/25 10:04:19;;;;;;;53.77;43.17;;;22.90;1.00;;;;;;4914254;29;20504;-78
2021/03/25 10:06:57;;;;;;;59.33;42.33;;;23.70;1.00;;;;;;4970888;28;21508;-80
2021/03/25 10:09:58;;;;;;;51.93;43.57;;;23.90;1.00;;;;;;4962048;28;20446;-79
2021/03/25 10:13:01;;;;;;;55.60;43.73;;;24.10;1.00;;;;;;4965385;28;20413;-80
2021/03/25 10:15:47;;;;;;;52.70;43.10;;;23.80;1.00;;;;;;4961994;28;20532;-78
2021/03/25 10:18:45;;;;;;;48.60;40.47;;;23.50;1.00;;;;;;4961900;28;20512;-80
2021/03/25 10:21:15;;;;;;;51.83;41.83;;;23.70;1.00;;;;;;4957499;28;21372;-78
2021/03/25 10:23:57;;;;;;;51.50;41.70;;;24.30;1.00;;;;;;4963410;28;20432;-78
2021/03/25 10:26:30;;;;;;;55.07;41.60;;;24.70;1.00;;;;;;4961074;28;21210;-78
2021/03/25 10:29:02;;;;;;;48.87;41.23;;;25.10;1.00;;;;;;4956756;28;20556;-79
2021/03/25 10:31:39;;;;;;;50.40;42.70;;;25.60;1.00;;;;;;4969682;28;20503;-77
2021/03/25 10:34:10;;;;;;;46.60;41.33;;;25.30;1.00;;;;;;4951720;28;20456;-78
2021/03/25 10:36:41;;;;;;;52.57;42.30;;;25.10;1.00;;;;;;4965494;28;20464;-78
2021/03/25 10:39:22;;;;;;;56.63;42.80;;;25.40;1.00;;;;;;4983492;28;20426;-77
2021/03/25 10:41:48;;;;;;;56.87;42.97;;;25.60;1.00;;;;;;4980772;28;20409;-79
2021/03/25 10:44:25;;;;;;;49.27;39.00;;;25.60;1.00;;;;;;4983342;28;20423;-78
2021/03/25 10:46:52;;;;;;;45.33;38.70;;;26.20;1.00;;;;;;4979800;28;20407;-79
2021/03/25 10:49:21;;;;;;;48.93;40.43;;;26.80;1.00;;;;;;4980055;28;20474;-78
2021/03/25 10:51:49;;;;;;;47.40;39.73;;;27.20;1.00;;;;;;4979742;28;20459;-77
2021/03/25 10:54:25;;;;;;;47.03;41.03;;;27.50;1.00;;;;;;4978653;28;20603;-78
2021/03/25 10:56:59;;;;;;;47.87;42.07;;;28.10;1.00;;;;;;4977485;28;20546;-78
2021/03/25 10:59:26;;;;;;;53.30;43.27;;;28.30;1.00;;;;;;4978477;28;20516;-78
2021/03/25 11:01:54;;;;;;;49.03;43.40;;;28.40;1.00;;;;;;4977657;28;20496;-77
2021/03/25 11:04:23;;;;;;;51.97;40.60;;;28.20;1.00;;;;;;4977933;28;20452;-78
2021/03/25 11:06:50;;;;;;;48.93;40.57;;;28.10;1.00;;;;;;4971638;28;20435;-78
2021/03/25 11:09:21;;;;;;;48.03;40.10;;;27.50;1.00;;;;;;4976649;28;20489;-77
2021/03/25 11:11:52;;;;;;;44.40;38.60;;;26.90;1.00;;;;;;4970009;28;21289;-77
2021/03/25 11:14:24;;;;;;;43.07;38.40;;;25.60;1.00;;;;;;4981594;28;20472;-78
2021/03/25 11:16:54;;;;;;;44.53;36.90;;;25.10;1.00;;;;;;4968346;28;20429;-77
2021/03/25 11:19:20;;;;;;;48.00;40.27;;;25.40;1.00;;;;;;4983430;28;20432;-80
2021/03/25 11:21:47;;;;;;;45.23;39.07;;;25.90;1.00;;;;;;4984631;28;20444;-78
2021/03/25 11:24:21;;;;;;;49.10;35.57;;;26.20;1.00;;;;;;4982693;28;20424;-79
2021/03/25 11:26:47;;;;;;;43.77;36.80;;;26.60;1.00;;;;;;4984200;28;20460;-77
2021/03/25 11:29:16;;;;;;;40.80;35.10;;;26.20;1.00;;;;;;4987351;28;20461;-78
2021/03/25 11:31:44;;;;;;;42.23;35.10;;;25.30;1.00;;;;;;4988066;28;20552;-79
2021/03/25 11:34:24;;;;;;;39.73;35.43;;;24.50;1.00;;;;;;4979680;28;20978;-78
2021/03/25 11:36:51;;;;;;;42.03;36.03;;;25.20;1.00;;;;;;4987671;28;20874;-78
2021/03/25 11:39:25;;;;;;;40.47;34.70;;;25.70;1.00;;;;;;4982688;28;20433;-78
2021/03/25 11:41:54;;;;;;;44.33;35.90;;;25.40;1.00;;;;;;4978387;28;20416;-78
2021/03/25 11:44:41;;;;;;;35.70;31.90;;;25.70;1.00;;;;;;4963512;28;20473;-78
2021/03/25 11:47:23;;;;;;;40.43;32.47;;;27.20;1.00;;;;;;4972187;28;20465;-77
2021/03/25 11:49:50;;;;;;;38.10;32.13;;;27.70;1.00;;;;;;4969954;28;20602;-77
2021/03/25 11:52:17;;;;;;;40.90;33.97;;;26.80;1.00;;;;;;4969932;28;20955;-79
2021/03/25 11:54:46;;;;;;;38.97;32.33;;;25.70;1.00;;;;;;4968906;28;20476;-78
2021/03/25 11:57:26;;;;;;;38.00;33.77;;;25.80;1.00;;;;;;4967032;28;20487;-78
2021/03/25 12:00:10;;;;;;;39.47;35.17;;;26.00;1.00;;;;;;4969126;28;20451;-78
2021/03/25 12:02:37;;;;;;;38.23;34.13;;;24.70;1.00;;;;;;4978196;28;20420;-78
2021/03/25 12:05:25;;;;;;;38.13;33.80;;;23.30;1.00;;;;;;4961633;28;20480;-79
2021/03/25 12:08:03;;;;;;;38.30;33.10;;;22.20;1.00;;;;;;4965592;28;20431;-77
2021/03/25 12:10:30;;;;;;;46.80;34.50;;;22.80;1.00;;;;;;4962780;28;20459;-79
2021/03/25 12:12:56;;;;;;;38.47;31.80;;;23.30;1.00;;;;;;4964912;28;20458;-79
2021/03/25 12:15:22;;;;;;;33.47;29.27;;;24.10;1.00;;;;;;4966172;28;20422;-79
2021/03/25 12:17:54;;;;;;;33.50;29.67;;;25.10;1.00;;;;;;4963798;28;20568;-79
2021/03/25 12:20:24;;;;;;;38.10;32.03;;;26.50;1.00;;;;;;4960615;28;20567;-78
2021/03/25 12:22:53;;;;;;;37.63;29.40;;;27.00;1.00;;;;;;4959381;28;20538;-79
2021/03/25 12:25:20;;;;;;;35.90;30.30;;;27.20;1.00;;;;;;4962901;28;20423;-78
2021/03/25 12:27:47;;;;;;;38.77;31.73;;;27.40;1.00;;;;;;4962018;28;20461;-78
2021/03/25 12:30:14;;;;;;;32.17;28.73;;;26.40;1.00;;;;;;4962098;28;20456;-78
2021/03/25 12:32:40;;;;;;;35.70;31.80;;;26.10;1.00;;;;;;4967369;28;20487;-78
2021/03/25 12:35:11;;;;;;;39.10;31.30;;;25.60;1.00;;;;;;4968480;28;20432;-78
2021/03/25 12:37:37;;;;;;;35.50;30.23;;;25.80;1.00;;;;;;4970347;28;20485;-78
2021/03/25 12:40:07;;;;;;;34.93;30.40;;;25.20;1.00;;;;;;4964084;28;20479;-78
2021/03/25 12:42:33;;;;;;;37.70;32.67;;;24.40;1.00;;;;;;4977953;28;20445;-77
2021/03/25 12:45:00;;;;;;;45.97;32.33;;;23.30;1.00;;;;;;4969533;28;20441;-78
2021/03/25 12:47:26;;;;;;;36.57;31.70;;;22.60;1.00;;;;;;4969692;28;20474;-77
2021/03/25 12:49:53;;;;;;;35.93;27.57;;;21.90;1.00;;;;;;4968521;28;20668;-78
2021/03/25 12:52:19;;;;;;;34.97;29.90;;;21.40;1.00;;;;;;4938364;28;22592;-79
2021/03/25 12:54:46;;;;;;;33.90;28.37;;;21.60;1.00;;;;;;4977536;28;20408;-77
2021/03/25 12:57:15;;;;;;;37.30;28.67;;;23.00;1.00;;;;;;4952942;28;20494;-77
2021/03/25 12:59:44;;;;;;;39.17;29.50;;;24.60;1.00;;;;;;4964106;28;20451;-78
2021/03/25 13:02:12;;;;;;;35.63;27.67;;;25.80;1.00;;;;;;4964022;28;20455;-77
2021/03/25 13:04:39;;;;;;;32.77;28.07;;;26.30;1.00;;;;;;4967037;28;21230;-77
2021/03/25 13:07:06;;;;;;;30.60;27.33;;;27.20;1.00;;;;;;4964748;28;20429;-77
2021/03/25 13:09:32;;;;;;;29.97;26.30;;;28.30;1.00;;;;;;4959535;28;20515;-78
2021/03/25 13:12:07;;;;;;;30.53;27.10;;;28.70;1.00;;;;;;4962300;28;21321;-77
2021/03/25 13:14:33;;;;;;;36.50;30.47;;;28.80;1.00;;;;;;4961107;28;20469;-78